createdAt,value
2022-11-24T00:00:25.772Z,83.75
2022-11-24T00:02:55.448Z,83.92
2022-11-24T00:05:25.749Z,84.43
2022-11-24T00:07:55.337Z,83.96
2022-11-24T00:10:25.413Z,84.95
2022-11-24T00:12:55.754Z,85.40
2022-11-24T00:15:26.071Z,85.33
2022-11-24T00:17:56.373Z,85.53
2022-11-24T00:20:26.205Z,84.98
2022-11-24T00:22:57.160Z,85.94
2022-11-24T00:25:27.563Z,86.63
2022-11-24T00:27:57.852Z,86.83
2022-11-24T00:30:27.806Z,85.82
2022-11-24T00:32:58.012Z,86.71
2022-11-24T00:35:28.005Z,86.10
2022-11-24T00:37:58.137Z,86.94
2022-11-24T00:40:33.617Z,86.96
2022-11-24T00:43:05.334Z,88.03
2022-11-24T00:45:35.537Z,87.44
2022-11-24T00:48:06.050Z,87.81
2022-11-24T00:50:37.178Z,87.52
2022-11-24T00:53:07.441Z,87.83
2022-11-24T00:55:37.354Z,87.30
2022-11-24T00:58:07.628Z,88.04
2022-11-24T01:00:37.910Z,88.01
2022-11-24T01:03:07.735Z,87.96
2022-11-24T01:05:41.372Z,89.28
2022-11-24T01:08:12.773Z,88.83
2022-11-24T01:10:43.174Z,88.94
2022-11-24T01:13:14.532Z,88.96
2022-11-24T01:15:45.178Z,89.31
2022-11-24T01:18:15.608Z,89.09
2022-11-24T01:20:45.859Z,89.56
2022-11-24T01:23:15.648Z,88.05
2022-11-24T01:25:45.714Z,89.88
2022-11-24T01:28:16.269Z,90.03
2022-11-24T01:30:48.398Z,89.74
2022-11-24T01:33:18.709Z,90.13
2022-11-24T01:35:48.879Z,89.28
2022-11-24T01:38:19.181Z,89.74
2022-11-24T01:40:49.640Z,89.83
2022-11-24T01:43:22.785Z,90.15
2022-11-24T01:45:53.093Z,89.85
2022-11-24T01:48:29.253Z,90.00
2022-11-24T01:51:12.173Z,89.77
2022-11-24T01:53:45.978Z,90.09
2022-11-24T01:56:16.922Z,89.73
2022-11-24T01:58:48.365Z,90.35
2022-11-24T02:01:19.071Z,90.98
2022-11-24T02:03:50.535Z,90.17
2022-11-24T02:06:29.097Z,90.07
2022-11-24T02:09:25.019Z,90.52
2022-11-24T02:11:57.224Z,89.79
2022-11-24T02:14:28.831Z,90.06
2022-11-24T02:16:59.186Z,90.44
2022-11-24T02:19:41.322Z,89.09
2022-11-24T02:22:26.405Z,89.43
2022-11-24T02:25:07.986Z,89.56
2022-11-24T02:27:38.545Z,90.21
2022-11-24T02:30:09.215Z,90.66
2022-11-24T02:32:43.700Z,90.78
2022-11-24T02:35:15.672Z,90.23
2022-11-24T02:37:46.345Z,90.01
2022-11-24T02:40:27.249Z,90.35
2022-11-24T02:43:02.043Z,91.42
2022-11-24T02:45:33.134Z,91.74
2022-11-24T02:48:03.408Z,91.59
2022-11-24T02:50:33.344Z,90.73
2022-11-24T02:53:03.542Z,90.42
2022-11-24T02:55:34.192Z,90.66
2022-11-24T02:58:04.500Z,92.17
2022-11-24T03:00:34.954Z,91.66
2022-11-24T03:03:06.123Z,92.55
2022-11-24T03:05:36.455Z,92.64
2022-11-24T03:08:06.503Z,91.79
2022-11-24T03:10:36.649Z,92.17
2022-11-24T03:13:07.017Z,92.44
2022-11-24T03:15:38.115Z,92.33
2022-11-24T03:18:08.657Z,92.15
2022-11-24T03:20:39.120Z,91.99
2022-11-24T03:23:09.472Z,92.86
2022-11-24T03:25:39.195Z,91.88
2022-11-24T03:28:09.474Z,92.58
2022-11-24T03:30:39.218Z,91.69
2022-11-24T03:33:09.647Z,92.11
2022-11-24T03:35:39.975Z,93.45
2022-11-24T03:38:10.577Z,93.30
2022-11-24T03:40:40.859Z,93.19
2022-11-24T03:43:10.615Z,92.23
2022-11-24T03:45:48.299Z,92.83
2022-11-24T03:48:22.404Z,92.61
2022-11-24T03:51:04.434Z,92.74
2022-11-24T03:53:35.644Z,92.06
2022-11-24T03:56:06.240Z,92.23
2022-11-24T03:58:36.823Z,92.50
2022-11-24T04:01:07.215Z,93.18
2022-11-24T04:03:37.017Z,92.64
2022-11-24T04:06:07.068Z,93.25
2022-11-24T04:08:37.015Z,92.48
2022-11-24T04:11:08.292Z,93.46
2022-11-24T04:13:38.635Z,93.13
2022-11-24T04:16:08.624Z,92.97
2022-11-24T04:18:38.589Z,93.74
2022-11-24T04:21:08.735Z,93.75
2022-11-24T04:23:38.690Z,93.38
2022-11-24T04:26:09.261Z,93.55
2022-11-24T04:28:39.766Z,93.72
2022-11-24T04:31:10.152Z,93.44
2022-11-24T04:33:40.436Z,94.32
2022-11-24T04:36:10.652Z,93.66
2022-11-24T04:39:24.689Z,93.62
2022-11-24T04:41:31.356Z,93.89
2022-11-24T04:44:01.347Z,94.65
2022-11-24T04:46:31.611Z,94.34
2022-11-24T04:49:01.908Z,94.17
2022-11-24T04:51:32.126Z,94.08
2022-11-24T04:54:02.354Z,94.04
2022-11-24T04:56:32.587Z,93.69
2022-11-24T04:59:08.023Z,93.85
2022-11-24T05:01:38.801Z,93.84
2022-11-24T05:04:08.594Z,93.65
2022-11-24T05:06:38.650Z,94.15
2022-11-24T05:09:09.208Z,93.60
2022-11-24T05:11:39.359Z,94.48
2022-11-24T05:14:09.666Z,95.01
2022-11-24T05:16:39.361Z,94.40
2022-11-24T05:19:09.749Z,95.10
2022-11-24T05:21:40.087Z,95.32
2022-11-24T05:24:10.028Z,94.70
2022-11-24T05:26:40.230Z,95.07
2022-11-24T05:29:09.987Z,94.40
2022-11-24T05:31:40.230Z,95.34
2022-11-24T05:34:10.959Z,95.21
2022-11-24T05:36:56.291Z,96.14
2022-11-24T05:39:26.782Z,96.53
2022-11-24T05:41:57.067Z,96.11
2022-11-24T05:44:27.371Z,96.57
2022-11-24T05:46:57.654Z,96.35
2022-11-24T05:49:27.501Z,95.91
2022-11-24T05:51:57.298Z,96.78
2022-11-24T05:54:27.533Z,97.06
2022-11-24T05:56:58.166Z,97.71
2022-11-24T05:59:28.478Z,97.47
2022-11-24T06:01:58.847Z,97.11
2022-11-24T06:04:29.285Z,96.89
2022-11-24T06:06:59.671Z,96.88
2022-11-24T06:09:30.155Z,96.77
2022-11-24T06:12:00.378Z,96.40
2022-11-24T06:14:30.508Z,96.77
2022-11-24T06:17:01.105Z,97.30
2022-11-24T06:19:32.116Z,97.39
2022-11-24T06:22:02.453Z,98.05
2022-11-24T06:24:32.539Z,97.40
2022-11-24T06:27:02.891Z,97.09
2022-11-24T06:29:33.138Z,96.49
2022-11-24T06:32:03.232Z,95.95
2022-11-24T06:34:33.378Z,95.86
2022-11-24T06:37:04.185Z,96.55
2022-11-24T06:39:34.736Z,96.70
2022-11-24T06:42:05.348Z,96.94
2022-11-24T06:44:35.912Z,96.25
2022-11-24T06:47:06.339Z,96.50
2022-11-24T06:49:36.636Z,96.27
2022-11-24T06:52:06.411Z,95.86
2022-11-24T06:54:36.680Z,96.12
2022-11-24T06:57:07.152Z,96.39
2022-11-24T06:59:37.405Z,96.28
2022-11-24T07:02:08.052Z,96.32
2022-11-24T07:04:38.312Z,96.53
2022-11-24T07:07:08.312Z,96.52
2022-11-24T07:09:38.594Z,96.15
2022-11-24T07:12:09.047Z,96.76
2022-11-24T07:14:39.301Z,96.38
2022-11-24T07:17:09.532Z,96.18
2022-11-24T07:19:39.811Z,96.62
2022-11-24T07:22:10.201Z,96.61
2022-11-24T07:24:40.054Z,96.01
2022-11-24T07:27:10.121Z,96.38
2022-11-24T07:29:40.361Z,96.49
2022-11-24T07:32:10.657Z,96.30
2022-11-24T07:34:40.406Z,96.09
2022-11-24T07:37:10.440Z,96.50
2022-11-24T07:39:40.220Z,96.51
2022-11-24T07:42:11.986Z,96.87
2022-11-24T07:44:42.197Z,96.49
2022-11-24T07:47:12.393Z,96.29
2022-11-24T07:49:42.618Z,96.31
2022-11-24T07:52:12.951Z,96.08
2022-11-24T07:54:42.596Z,95.70
2022-11-24T07:57:12.510Z,96.36
2022-11-24T07:59:42.821Z,96.02
2022-11-24T08:02:14.847Z,96.61
2022-11-24T08:04:44.989Z,97.05
2022-11-24T08:07:15.234Z,97.23
2022-11-24T08:09:45.455Z,97.41
2022-11-24T08:12:15.875Z,96.70
2022-11-24T08:14:46.138Z,96.92
2022-11-24T08:17:16.440Z,97.55
2022-11-24T08:19:47.093Z,98.05
2022-11-24T08:22:17.412Z,98.25
2022-11-24T08:24:49.815Z,97.44
2022-11-24T08:27:21.062Z,96.98
2022-11-24T08:29:51.330Z,97.08
2022-11-24T08:32:22.523Z,96.72
2022-11-24T08:34:59.526Z,96.88
2022-11-24T08:37:34.722Z,96.55
2022-11-24T08:40:05.065Z,96.92
2022-11-24T08:42:35.468Z,96.74
2022-11-24T08:45:20.030Z,96.10
2022-11-24T08:47:59.083Z,96.68
2022-11-24T08:50:29.335Z,96.81
2022-11-24T08:52:59.603Z,96.91
2022-11-24T08:55:29.882Z,96.27
2022-11-24T08:58:00.624Z,96.75
2022-11-24T09:00:30.737Z,96.08
2022-11-24T09:03:01.099Z,96.56
2022-11-24T09:08:22.052Z,97.04
2022-11-24T09:10:52.809Z,97.14
2022-11-24T09:13:23.035Z,96.80
2022-11-24T09:15:53.243Z,96.18
2022-11-24T09:18:26.333Z,95.76
2022-11-24T09:21:15.224Z,95.44
2022-11-24T09:23:46.687Z,95.59
2022-11-24T09:26:18.345Z,95.53
2022-11-24T09:28:49.370Z,95.31
2022-11-24T09:31:20.393Z,95.07
2022-11-24T09:33:50.734Z,94.92
2022-11-24T09:36:20.916Z,94.49
2022-11-24T09:38:51.246Z,94.58
2022-11-24T09:41:45.747Z,94.80
2022-11-24T09:44:38.804Z,94.04
2022-11-24T09:47:40.994Z,93.69
2022-11-24T09:50:45.900Z,93.78
2022-11-24T09:53:18.889Z,92.92
2022-11-24T09:55:55.204Z,93.09
2022-11-24T09:58:47.189Z,93.23
2022-11-24T10:01:26.149Z,93.15
2022-11-24T10:04:01.114Z,92.07
2022-11-24T10:06:46.360Z,92.06
2022-11-24T10:09:37.864Z,91.84
2022-11-24T10:12:32.857Z,91.92
2022-11-24T10:15:23.659Z,91.75
2022-11-24T10:18:33.990Z,91.82
2022-11-24T10:21:25.408Z,91.73
2022-11-24T10:24:01.141Z,91.60
2022-11-24T10:26:39.221Z,91.33
2022-11-24T10:29:17.826Z,91.31
2022-11-24T10:31:50.215Z,91.17
2022-11-24T10:34:43.920Z,90.30
2022-11-24T10:37:18.159Z,90.21
2022-11-24T10:40:00.240Z,90.14
2022-11-24T10:42:38.208Z,90.21
2022-11-24T10:45:16.776Z,90.09
2022-11-24T10:47:48.108Z,88.83
2022-11-24T10:50:21.264Z,88.71
2022-11-24T10:53:24.112Z,89.34
2022-11-24T10:56:00.287Z,88.96
2022-11-24T10:58:41.307Z,87.53
2022-11-24T11:01:17.469Z,89.00
2022-11-24T11:03:57.433Z,88.08
2022-11-24T11:06:32.957Z,87.89
2022-11-24T11:09:09.214Z,87.74
2022-11-24T11:11:41.225Z,87.13
2022-11-24T11:14:14.892Z,87.10
2022-11-24T11:16:53.078Z,87.36
2022-11-24T11:19:48.831Z,86.56
2022-11-24T11:22:38.677Z,86.58
2022-11-24T11:25:14.794Z,86.55
2022-11-24T11:27:45.209Z,85.33
2022-11-24T11:36:19.903Z,84.63
2022-11-24T11:38:50.210Z,84.29
2022-11-24T11:41:39.957Z,85.15
2022-11-24T11:44:28.090Z,83.69
2022-11-24T11:47:00.944Z,82.80
2022-11-24T11:49:31.591Z,82.62
2022-11-24T11:52:01.757Z,82.04
2022-11-24T11:55:15.953Z,81.76
2022-11-24T11:58:12.548Z,82.49
2022-11-24T12:00:50.213Z,80.52
2022-11-24T12:03:32.790Z,80.23
2022-11-24T12:06:17.991Z,81.72
2022-11-24T12:09:19.862Z,81.20
2022-11-24T12:11:56.868Z,80.61
2022-11-24T12:14:43.569Z,81.00
2022-11-24T12:17:55.170Z,79.75
2022-11-24T12:20:58.144Z,79.37
2022-11-24T12:23:52.279Z,76.85
2022-11-24T12:26:40.529Z,76.61
2022-11-24T12:29:32.401Z,76.07
2022-11-24T12:32:20.505Z,76.54
2022-11-24T12:35:19.719Z,76.00
2022-11-24T12:37:55.992Z,76.45
2022-11-24T12:41:18.107Z,76.05
2022-11-24T12:43:55.001Z,76.39
2022-11-24T12:46:57.311Z,76.01
2022-11-24T12:49:58.222Z,71.19
2022-11-24T12:52:36.162Z,72.16
2022-11-24T12:55:07.230Z,70.87
2022-11-24T12:57:56.138Z,70.87
2022-11-24T13:00:36.890Z,70.43
2022-11-24T13:03:12.932Z,69.10
2022-11-24T13:06:23.354Z,71.14
2022-11-24T13:08:54.094Z,71.43
2022-11-24T13:11:24.360Z,72.57
2022-11-24T13:14:00.967Z,71.74
2022-11-24T13:16:48.597Z,73.78
2022-11-24T13:19:35.160Z,71.13
2022-11-24T13:22:12.191Z,69.68
2022-11-24T13:24:43.996Z,71.76
2022-11-24T13:27:17.153Z,72.62
2022-11-24T13:29:49.267Z,72.01
2022-11-24T13:32:22.616Z,70.36
2022-11-24T13:34:55.990Z,67.98
2022-11-24T13:37:35.331Z,65.96
2022-11-24T13:40:15.533Z,66.49
2022-11-24T13:42:58.775Z,69.48
2022-11-24T13:45:52.355Z,70.47
2022-11-24T13:48:22.951Z,63.40
2022-11-24T13:50:54.416Z,63.42
2022-11-24T13:53:27.396Z,64.73
2022-11-24T13:56:31.406Z,63.84
2022-11-24T13:59:18.491Z,65.77
2022-11-24T14:01:59.106Z,63.17
2022-11-24T14:04:31.773Z,62.47
2022-11-24T14:07:14.729Z,59.80
2022-11-24T14:09:51.406Z,59.72
2022-11-24T14:12:28.059Z,60.56
2022-11-24T14:15:27.282Z,56.90
2022-11-24T14:17:57.568Z,58.20
2022-11-24T14:20:29.676Z,57.46
2022-11-24T14:23:01.973Z,61.11
2022-11-24T14:25:33.983Z,57.62
2022-11-24T14:28:04.494Z,58.80
2022-11-24T14:30:34.791Z,59.57
2022-11-24T14:33:06.052Z,62.73
2022-11-24T14:35:37.999Z,60.32
2022-11-24T14:38:10.785Z,61.29
2022-11-24T14:40:51.646Z,56.19
2022-11-24T14:43:34.877Z,55.49
2022-11-24T14:46:10.458Z,53.20
2022-11-24T14:48:54.524Z,52.96
2022-11-24T14:51:29.685Z,53.27
2022-11-24T14:54:16.819Z,56.69
2022-11-24T14:57:05.524Z,54.66
2022-11-24T14:59:39.677Z,53.27
2022-11-24T15:02:45.960Z,53.55
2022-11-24T15:05:17.605Z,54.71
2022-11-24T15:07:49.983Z,54.86
2022-11-24T15:10:29.080Z,54.63
2022-11-24T15:13:05.837Z,56.63
2022-11-24T15:15:38.689Z,56.27
2022-11-24T15:18:42.083Z,54.53
2022-11-24T15:21:18.864Z,55.99
2022-11-24T15:24:19.575Z,56.95
2022-11-24T15:26:49.913Z,53.71
2022-11-24T15:29:20.136Z,55.59
2022-11-24T15:31:52.891Z,56.30
2022-11-24T15:34:23.380Z,54.46
2022-11-24T15:36:53.711Z,55.00
2022-11-24T15:39:23.886Z,55.76
2022-11-24T15:41:54.122Z,54.93
2022-11-24T15:44:23.677Z,53.89
2022-11-24T15:46:53.639Z,53.94
2022-11-24T15:49:23.811Z,53.39
2022-11-24T15:51:53.879Z,54.91
2022-11-24T15:54:25.944Z,53.91
2022-11-24T15:56:56.213Z,56.40
2022-11-24T15:59:25.810Z,54.71
2022-11-24T16:01:55.772Z,50.75
2022-11-24T16:04:25.677Z,55.41
2022-11-24T16:06:55.573Z,50.44
2022-11-24T16:09:25.673Z,49.89
2022-11-24T16:12:06.267Z,50.84
2022-11-24T16:14:37.894Z,51.35
2022-11-24T16:17:08.441Z,52.10
2022-11-24T16:19:41.774Z,52.15
2022-11-24T16:22:12.458Z,51.94
2022-11-24T16:24:42.777Z,50.55
2022-11-24T16:27:12.926Z,51.13
2022-11-24T16:29:43.334Z,52.06
2022-11-24T16:32:13.428Z,50.79
2022-11-24T16:34:43.839Z,50.77
2022-11-24T16:37:14.118Z,51.73
2022-11-24T16:39:49.682Z,52.34
2022-11-24T16:42:20.317Z,50.80
2022-11-24T16:44:50.941Z,51.46
2022-11-24T16:47:21.620Z,51.71
2022-11-24T16:49:52.013Z,51.53
2022-11-24T16:52:22.213Z,52.07
2022-11-24T16:54:52.604Z,50.28
2022-11-24T16:57:22.895Z,49.73
2022-11-24T16:59:53.176Z,50.04
2022-11-24T17:02:23.628Z,49.15
2022-11-24T17:04:54.563Z,49.64
2022-11-24T17:07:24.784Z,48.41
2022-11-24T17:09:55.357Z,49.54
2022-11-24T17:12:25.668Z,50.91
2022-11-24T17:15:24.344Z,53.76
2022-11-24T17:18:16.162Z,52.06
2022-11-24T17:20:38.086Z,53.94
2022-11-24T17:23:08.518Z,55.53
2022-11-24T17:25:38.799Z,52.56
2022-11-24T17:28:09.109Z,54.50
2022-11-24T17:30:39.788Z,53.22
2022-11-24T17:33:10.007Z,55.22
2022-11-24T17:35:40.433Z,52.10
2022-11-24T17:38:10.608Z,51.84
2022-11-24T17:40:41.027Z,50.55
2022-11-24T17:43:11.293Z,51.72
2022-11-24T17:45:41.159Z,51.79
2022-11-24T17:48:11.403Z,52.34
2022-11-24T17:50:41.806Z,51.86
2022-11-24T17:53:12.489Z,51.44
2022-11-24T17:55:43.466Z,51.38
2022-11-24T17:58:13.810Z,50.27
2022-11-24T18:00:44.175Z,51.38
2022-11-24T18:03:14.474Z,52.33
2022-11-24T18:05:45.214Z,53.28
2022-11-24T18:08:15.678Z,52.82
2022-11-24T18:10:45.978Z,52.69
2022-11-24T18:13:40.693Z,52.11
2022-11-24T18:16:10.119Z,51.56
2022-11-24T18:18:40.701Z,50.77
2022-11-24T18:21:19.037Z,51.71
2022-11-24T18:23:49.369Z,51.44
2022-11-24T18:26:19.926Z,53.34
2022-11-24T18:28:50.519Z,53.51
2022-11-24T18:31:21.963Z,52.40
2022-11-24T18:33:52.233Z,51.26
2022-11-24T18:36:29.718Z,51.23
2022-11-24T18:39:09.015Z,52.36
2022-11-24T18:41:41.027Z,53.37
2022-11-24T18:44:11.244Z,52.55
2022-11-24T18:46:41.536Z,54.25
2022-11-24T18:49:11.944Z,53.37
2022-11-24T18:51:42.518Z,51.87
2022-11-24T18:54:12.650Z,51.73
2022-11-24T18:56:43.033Z,52.67
2022-11-24T18:59:13.303Z,53.14
2022-11-24T19:01:43.020Z,53.71
2022-11-24T19:04:14.161Z,55.40
2022-11-24T19:06:45.238Z,54.67
2022-11-24T19:09:18.747Z,55.80
2022-11-24T19:11:49.357Z,55.35
2022-11-24T19:14:21.081Z,56.42
2022-11-24T19:16:51.503Z,56.13
2022-11-24T19:19:21.933Z,57.37
2022-11-24T19:21:52.236Z,57.65
2022-11-24T19:24:22.711Z,57.30
2022-11-24T19:26:53.112Z,57.20
2022-11-24T19:29:24.026Z,57.63
2022-11-24T19:31:56.830Z,57.31
2022-11-24T19:34:27.252Z,58.79
2022-11-24T19:36:57.636Z,58.86
2022-11-24T19:39:27.981Z,58.11
2022-11-24T19:41:58.326Z,58.31
2022-11-24T19:44:28.491Z,58.12
2022-11-24T19:46:58.843Z,58.23
2022-11-24T19:49:29.153Z,59.11
2022-11-24T19:51:59.350Z,59.32
2022-11-24T19:54:29.721Z,60.08
2022-11-24T19:57:00.080Z,59.12
2022-11-24T19:59:30.354Z,59.94
2022-11-24T20:02:01.327Z,59.07
2022-11-24T20:04:33.859Z,60.89
2022-11-24T20:07:04.754Z,60.81
2022-11-24T20:09:35.498Z,61.33
2022-11-24T20:12:06.185Z,61.30
2022-11-24T20:14:36.665Z,60.85
2022-11-24T20:17:08.076Z,61.46
2022-11-24T20:19:38.357Z,62.08
2022-11-24T20:22:08.716Z,62.06
2022-11-24T20:24:39.126Z,62.48
2022-11-24T20:27:09.559Z,62.68
2022-11-24T20:29:46.460Z,62.37
2022-11-24T20:32:21.001Z,62.68
2022-11-24T20:34:51.562Z,62.05
2022-11-24T20:37:22.230Z,64.26
2022-11-24T20:39:52.759Z,62.64
2022-11-24T20:42:23.187Z,61.93
2022-11-24T20:44:53.621Z,62.44
2022-11-24T20:47:23.823Z,62.98
2022-11-24T20:49:54.001Z,63.43
2022-11-24T20:52:24.385Z,64.08
2022-11-24T20:54:54.626Z,63.23
2022-11-24T20:57:24.886Z,63.86
2022-11-24T20:59:55.370Z,64.73
2022-11-24T21:02:25.180Z,64.71
2022-11-24T21:04:55.377Z,65.34
2022-11-24T21:07:26.044Z,65.29
2022-11-24T21:09:56.361Z,65.08
2022-11-24T21:12:26.603Z,65.69
2022-11-24T21:14:56.855Z,65.69
2022-11-24T21:17:27.244Z,66.08
2022-11-24T21:20:00.842Z,65.23
2022-11-24T21:22:31.404Z,65.61
2022-11-24T21:25:01.657Z,66.64
2022-11-24T21:27:32.130Z,66.44
2022-11-24T21:30:02.373Z,66.10
2022-11-24T21:32:33.572Z,66.48
2022-11-24T21:35:04.093Z,66.90
2022-11-24T21:37:34.316Z,67.81
2022-11-24T21:40:04.676Z,67.53
2022-11-24T21:42:34.905Z,67.82
2022-11-24T21:45:05.249Z,67.70
2022-11-24T21:47:35.864Z,68.57
2022-11-24T21:50:07.894Z,68.15
2022-11-24T21:52:38.302Z,68.51
2022-11-24T21:55:08.968Z,68.64
2022-11-24T21:57:39.920Z,68.82
2022-11-24T22:00:10.436Z,69.27
2022-11-24T22:02:40.811Z,69.61
2022-11-24T22:05:11.523Z,69.59
2022-11-24T22:07:42.155Z,69.83
2022-11-24T22:10:12.755Z,70.10
2022-11-24T22:12:42.999Z,70.65
2022-11-24T22:15:13.249Z,70.79
2022-11-24T22:17:43.580Z,70.75
2022-11-24T22:20:13.202Z,70.76
2022-11-24T22:22:43.108Z,71.52
2022-11-24T22:25:13.378Z,71.89
2022-11-24T22:27:44.134Z,72.20
2022-11-24T22:30:14.645Z,72.56
2022-11-24T22:32:44.699Z,72.54
2022-11-24T22:35:14.719Z,73.00
2022-11-24T22:37:44.763Z,72.95
2022-11-24T22:40:14.961Z,72.75
2022-11-24T22:42:45.181Z,73.75
2022-11-24T22:45:14.937Z,73.53
2022-11-24T22:47:45.073Z,73.31
2022-11-24T22:50:15.276Z,72.77
2022-11-24T22:52:45.433Z,73.96
2022-11-24T22:55:15.267Z,73.53
2022-11-24T22:57:48.251Z,73.88
2022-11-24T23:00:20.013Z,74.29
2022-11-24T23:02:50.714Z,74.54
2022-11-24T23:05:21.089Z,74.61
2022-11-24T23:07:51.499Z,74.81
2022-11-24T23:10:22.323Z,74.70
2022-11-24T23:12:52.738Z,75.24
2022-11-24T23:15:23.006Z,75.24
2022-11-24T23:17:53.478Z,75.13
2022-11-24T23:20:24.037Z,77.06
2022-11-24T23:22:56.552Z,77.02
2022-11-24T23:25:26.868Z,75.62
2022-11-24T23:27:57.264Z,76.54
2022-11-24T23:30:27.584Z,77.86
2022-11-24T23:32:57.950Z,76.97
2022-11-24T23:35:28.386Z,77.41
2022-11-24T23:38:07.455Z,76.76
2022-11-24T23:40:37.992Z,76.70
2022-11-24T23:43:07.722Z,76.59
2022-11-24T23:45:37.685Z,77.39
2022-11-24T23:48:09.770Z,77.56
2022-11-24T23:50:40.158Z,78.36
2022-11-24T23:53:10.480Z,78.49
2022-11-24T23:55:40.764Z,77.62
2022-11-24T23:58:10.507Z,77.60
